sensor_id;sensor_type;location;lat;lon;timestamp;P1;durP1;ratioP1;P2;durP2;ratioP2
7173;SDS011;3628;48.654;8.932;2022-08-19T00:01:46;9.48;;;8.48;;
7173;SDS011;3628;48.654;8.932;2022-08-19T00:04:14;11.75;;;8.82;;
7173;SDS011;3628;48.654;8.932;2022-08-19T00:06:42;10.57;;;8.57;;
7173;SDS011;3628;48.654;8.932;2022-08-19T00:09:10;12.68;;;8.75;;
7173;SDS011;3628;48.654;8.932;2022-08-19T00:11:38;10.32;;;8.77;;
7173;SDS011;3628;48.654;8.932;2022-08-19T00:14:04;10.65;;;8.07;;
7173;SDS011;3628;48.654;8.932;2022-08-19T00:16:31;10.25;;;8.70;;
7173;SDS011;3628;48.654;8.932;2022-08-19T00:18:57;11.68;;;8.63;;
7173;SDS011;3628;48.654;8.932;2022-08-19T00:21:23;11.68;;;9.13;;
7173;SDS011;3628;48.654;8.932;2022-08-19T00:23:49;9.95;;;8.95;;
7173;SDS011;3628;48.654;8.932;2022-08-19T00:26:15;10.70;;;9.23;;
7173;SDS011;3628;48.654;8.932;2022-08-19T00:28:40;11.10;;;9.05;;
7173;SDS011;3628;48.654;8.932;2022-08-19T00:31:07;10.52;;;9.13;;
7173;SDS011;3628;48.654;8.932;2022-08-19T00:33:33;10.45;;;9.35;;
7173;SDS011;3628;48.654;8.932;2022-08-19T00:35:59;11.38;;;9.57;;
7173;SDS011;3628;48.654;8.932;2022-08-19T00:38:25;11.90;;;9.80;;
7173;SDS011;3628;48.654;8.932;2022-08-19T00:40:51;10.80;;;9.60;;
7173;SDS011;3628;48.654;8.932;2022-08-19T00:43:18;11.65;;;9.93;;
7173;SDS011;3628;48.654;8.932;2022-08-19T00:45:46;11.25;;;9.65;;
7173;SDS011;3628;48.654;8.932;2022-08-19T00:48:13;11.20;;;9.98;;
7173;SDS011;3628;48.654;8.932;2022-08-19T00:50:39;10.57;;;9.45;;
7173;SDS011;3628;48.654;8.932;2022-08-19T00:53:08;10.75;;;8.95;;
7173;SDS011;3628;48.654;8.932;2022-08-19T00:55:35;13.18;;;10.23;;
7173;SDS011;3628;48.654;8.932;2022-08-19T00:58:05;12.02;;;10.00;;
7173;SDS011;3628;48.654;8.932;2022-08-19T01:00:34;12.98;;;10.45;;
7173;SDS011;3628;48.654;8.932;2022-08-19T01:03:03;11.75;;;10.55;;
7173;SDS011;3628;48.654;8.932;2022-08-19T01:05:31;14.50;;;10.27;;
7173;SDS011;3628;48.654;8.932;2022-08-19T01:07:58;11.15;;;9.68;;
7173;SDS011;3628;48.654;8.932;2022-08-19T01:10:27;11.70;;;10.10;;
7173;SDS011;3628;48.654;8.932;2022-08-19T01:12:54;13.88;;;10.27;;
7173;SDS011;3628;48.654;8.932;2022-08-19T01:15:22;11.52;;;10.05;;
7173;SDS011;3628;48.654;8.932;2022-08-19T01:17:55;10.70;;;9.57;;
7173;SDS011;3628;48.654;8.932;2022-08-19T01:20:24;11.25;;;10.05;;
7173;SDS011;3628;48.654;8.932;2022-08-19T01:22:52;11.27;;;10.07;;
7173;SDS011;3628;48.654;8.932;2022-08-19T01:25:21;10.95;;;9.85;;
7173;SDS011;3628;48.654;8.932;2022-08-19T01:28:01;11.65;;;10.45;;
7173;SDS011;3628;48.654;8.932;2022-08-19T01:30:28;12.57;;;10.70;;
7173;SDS011;3628;48.654;8.932;2022-08-19T01:32:56;12.00;;;10.70;;
7173;SDS011;3628;48.654;8.932;2022-08-19T01:35:24;12.93;;;10.98;;
7173;SDS011;3628;48.654;8.932;2022-08-19T01:38:02;11.52;;;10.32;;
7173;SDS011;3628;48.654;8.932;2022-08-19T01:40:36;12.50;;;10.88;;
7173;SDS011;3628;48.654;8.932;2022-08-19T01:43:04;13.02;;;10.80;;
7173;SDS011;3628;48.654;8.932;2022-08-19T01:45:31;13.48;;;11.68;;
7173;SDS011;3628;48.654;8.932;2022-08-19T01:47:59;11.90;;;10.65;;
7173;SDS011;3628;48.654;8.932;2022-08-19T01:50:25;15.18;;;11.32;;
7173;SDS011;3628;48.654;8.932;2022-08-19T01:52:51;13.68;;;11.90;;
7173;SDS011;3628;48.654;8.932;2022-08-19T01:55:18;13.93;;;10.60;;
7173;SDS011;3628;48.654;8.932;2022-08-19T01:57:47;12.98;;;11.50;;
7173;SDS011;3628;48.654;8.932;2022-08-19T02:00:16;14.30;;;11.52;;
7173;SDS011;3628;48.654;8.932;2022-08-19T02:02:44;14.07;;;11.70;;
7173;SDS011;3628;48.654;8.932;2022-08-19T02:05:10;13.35;;;11.82;;
7173;SDS011;3628;48.654;8.932;2022-08-19T02:07:38;13.75;;;11.43;;
7173;SDS011;3628;48.654;8.932;2022-08-19T02:10:05;13.02;;;11.45;;
7173;SDS011;3628;48.654;8.932;2022-08-19T02:12:33;14.70;;;11.27;;
7173;SDS011;3628;48.654;8.932;2022-08-19T02:14:58;13.18;;;11.80;;
7173;SDS011;3628;48.654;8.932;2022-08-19T02:17:26;11.73;;;10.52;;
7173;SDS011;3628;48.654;8.932;2022-08-19T02:19:53;14.90;;;11.02;;
7173;SDS011;3628;48.654;8.932;2022-08-19T02:22:19;13.82;;;11.68;;
7173;SDS011;3628;48.654;8.932;2022-08-19T02:24:45;15.05;;;13.52;;
7173;SDS011;3628;48.654;8.932;2022-08-19T02:27:11;17.33;;;15.43;;
7173;SDS011;3628;48.654;8.932;2022-08-19T02:29:37;16.43;;;14.80;;
7173;SDS011;3628;48.654;8.932;2022-08-19T02:32:02;13.23;;;11.82;;
7173;SDS011;3628;48.654;8.932;2022-08-19T02:34:29;13.95;;;11.43;;
7173;SDS011;3628;48.654;8.932;2022-08-19T02:36:54;12.33;;;11.00;;
7173;SDS011;3628;48.654;8.932;2022-08-19T02:39:20;13.73;;;11.27;;
7173;SDS011;3628;48.654;8.932;2022-08-19T02:41:45;13.00;;;11.50;;
7173;SDS011;3628;48.654;8.932;2022-08-19T02:44:11;13.82;;;11.77;;
7173;SDS011;3628;48.654;8.932;2022-08-19T02:46:37;13.13;;;11.52;;
7173;SDS011;3628;48.654;8.932;2022-08-19T02:49:04;13.20;;;11.55;;
7173;SDS011;3628;48.654;8.932;2022-08-19T02:51:35;13.15;;;11.32;;
7173;SDS011;3628;48.654;8.932;2022-08-19T02:54:06;13.67;;;11.80;;
7173;SDS011;3628;48.654;8.932;2022-08-19T02:56:35;13.80;;;11.53;;
7173;SDS011;3628;48.654;8.932;2022-08-19T02:59:02;14.03;;;11.83;;
7173;SDS011;3628;48.654;8.932;2022-08-19T03:01:29;12.90;;;11.60;;
7173;SDS011;3628;48.654;8.932;2022-08-19T03:03:57;13.10;;;11.70;;
7173;SDS011;3628;48.654;8.932;2022-08-19T03:06:28;13.67;;;11.60;;
7173;SDS011;3628;48.654;8.932;2022-08-19T03:08:54;13.40;;;11.87;;
7173;SDS011;3628;48.654;8.932;2022-08-19T03:11:27;13.93;;;11.43;;
7173;SDS011;3628;48.654;8.932;2022-08-19T03:13:55;13.93;;;12.43;;
7173;SDS011;3628;48.654;8.932;2022-08-19T03:16:22;14.60;;;12.57;;
7173;SDS011;3628;48.654;8.932;2022-08-19T03:18:50;13.82;;;11.68;;
7173;SDS011;3628;48.654;8.932;2022-08-19T03:21:17;15.17;;;12.10;;
7173;SDS011;3628;48.654;8.932;2022-08-19T03:23:53;14.00;;;12.40;;
7173;SDS011;3628;48.654;8.932;2022-08-19T03:26:19;14.53;;;12.93;;
7173;SDS011;3628;48.654;8.932;2022-08-19T03:28:45;14.17;;;12.70;;
7173;SDS011;3628;48.654;8.932;2022-08-19T03:31:14;14.93;;;12.77;;
7173;SDS011;3628;48.654;8.932;2022-08-19T03:33:42;13.83;;;12.43;;
7173;SDS011;3628;48.654;8.932;2022-08-19T03:38:42;14.53;;;12.83;;
7173;SDS011;3628;48.654;8.932;2022-08-19T03:41:21;14.33;;;12.90;;
7173;SDS011;3628;48.654;8.932;2022-08-19T03:43:48;15.97;;;14.10;;
7173;SDS011;3628;48.654;8.932;2022-08-19T03:46:19;15.73;;;13.23;;
7173;SDS011;3628;48.654;8.932;2022-08-19T03:48:48;18.55;;;14.77;;
7173;SDS011;3628;48.654;8.932;2022-08-19T03:51:28;17.25;;;14.00;;
7173;SDS011;3628;48.654;8.932;2022-08-19T03:53:56;16.05;;;14.35;;
7173;SDS011;3628;48.654;8.932;2022-08-19T03:56:24;16.60;;;14.23;;
7173;SDS011;3628;48.654;8.932;2022-08-19T03:58:51;16.40;;;14.27;;
7173;SDS011;3628;48.654;8.932;2022-08-19T04:01:18;16.60;;;14.27;;
7173;SDS011;3628;48.654;8.932;2022-08-19T04:03:45;16.83;;;13.55;;
7173;SDS011;3628;48.654;8.932;2022-08-19T04:06:13;15.32;;;13.73;;
7173;SDS011;3628;48.654;8.932;2022-08-19T04:08:40;15.55;;;13.68;;
7173;SDS011;3628;48.654;8.932;2022-08-19T04:11:11;16.73;;;13.97;;
7173;SDS011;3628;48.654;8.932;2022-08-19T04:13:38;16.25;;;14.20;;
7173;SDS011;3628;48.654;8.932;2022-08-19T04:16:05;15.18;;;13.55;;
7173;SDS011;3628;48.654;8.932;2022-08-19T04:18:34;18.30;;;14.75;;
7173;SDS011;3628;48.654;8.932;2022-08-19T04:21:01;15.93;;;14.23;;
7173;SDS011;3628;48.654;8.932;2022-08-19T04:23:27;17.13;;;13.93;;
7173;SDS011;3628;48.654;8.932;2022-08-19T04:25:53;19.58;;;15.35;;
7173;SDS011;3628;48.654;8.932;2022-08-19T04:28:20;16.87;;;15.07;;
7173;SDS011;3628;48.654;8.932;2022-08-19T04:30:48;19.37;;;16.40;;
7173;SDS011;3628;48.654;8.932;2022-08-19T04:33:16;17.05;;;15.18;;
7173;SDS011;3628;48.654;8.932;2022-08-19T04:35:45;18.10;;;14.33;;
7173;SDS011;3628;48.654;8.932;2022-08-19T04:38:12;19.67;;;16.20;;
7173;SDS011;3628;48.654;8.932;2022-08-19T04:40:42;18.05;;;15.20;;
7173;SDS011;3628;48.654;8.932;2022-08-19T04:43:31;19.03;;;14.97;;
7173;SDS011;3628;48.654;8.932;2022-08-19T04:46:03;20.42;;;16.40;;
7173;SDS011;3628;48.654;8.932;2022-08-19T04:48:31;20.87;;;15.70;;
7173;SDS011;3628;48.654;8.932;2022-08-19T04:50:56;18.37;;;14.87;;
7173;SDS011;3628;48.654;8.932;2022-08-19T04:53:26;17.73;;;15.83;;
7173;SDS011;3628;48.654;8.932;2022-08-19T04:55:54;20.10;;;15.93;;
7173;SDS011;3628;48.654;8.932;2022-08-19T04:58:21;17.93;;;14.77;;
7173;SDS011;3628;48.654;8.932;2022-08-19T05:00:48;17.90;;;15.50;;
7173;SDS011;3628;48.654;8.932;2022-08-19T05:03:14;21.70;;;17.00;;
7173;SDS011;3628;48.654;8.932;2022-08-19T05:05:42;19.90;;;15.38;;
7173;SDS011;3628;48.654;8.932;2022-08-19T05:08:08;20.23;;;15.70;;
7173;SDS011;3628;48.654;8.932;2022-08-19T05:10:37;18.03;;;15.97;;
7173;SDS011;3628;48.654;8.932;2022-08-19T05:13:04;20.53;;;15.67;;
7173;SDS011;3628;48.654;8.932;2022-08-19T05:15:30;20.48;;;16.35;;
7173;SDS011;3628;48.654;8.932;2022-08-19T05:17:56;18.00;;;15.50;;
7173;SDS011;3628;48.654;8.932;2022-08-19T05:20:40;20.50;;;16.75;;
7173;SDS011;3628;48.654;8.932;2022-08-19T05:23:24;17.20;;;15.27;;
7173;SDS011;3628;48.654;8.932;2022-08-19T05:25:50;20.40;;;15.43;;
7173;SDS011;3628;48.654;8.932;2022-08-19T05:28:17;19.67;;;16.67;;
7173;SDS011;3628;48.654;8.932;2022-08-19T05:30:44;18.67;;;16.17;;
7173;SDS011;3628;48.654;8.932;2022-08-19T05:33:11;18.47;;;15.80;;
7173;SDS011;3628;48.654;8.932;2022-08-19T05:35:37;18.55;;;15.23;;
7173;SDS011;3628;48.654;8.932;2022-08-19T05:38:04;18.23;;;14.60;;
7173;SDS011;3628;48.654;8.932;2022-08-19T05:40:33;17.43;;;15.63;;
7173;SDS011;3628;48.654;8.932;2022-08-19T05:43:01;16.80;;;14.70;;
7173;SDS011;3628;48.654;8.932;2022-08-19T05:45:27;20.90;;;15.47;;
7173;SDS011;3628;48.654;8.932;2022-08-19T05:47:53;19.23;;;15.73;;
7173;SDS011;3628;48.654;8.932;2022-08-19T05:50:19;16.05;;;14.35;;
7173;SDS011;3628;48.654;8.932;2022-08-19T05:52:44;17.30;;;14.40;;
7173;SDS011;3628;48.654;8.932;2022-08-19T05:55:10;18.98;;;15.57;;
7173;SDS011;3628;48.654;8.932;2022-08-19T05:57:36;19.27;;;16.27;;
7173;SDS011;3628;48.654;8.932;2022-08-19T06:00:03;18.67;;;15.15;;
7173;SDS011;3628;48.654;8.932;2022-08-19T06:02:33;16.98;;;14.63;;
7173;SDS011;3628;48.654;8.932;2022-08-19T06:05:00;18.25;;;14.68;;
7173;SDS011;3628;48.654;8.932;2022-08-19T06:07:27;18.20;;;14.50;;
7173;SDS011;3628;48.654;8.932;2022-08-19T06:09:53;17.00;;;14.10;;
7173;SDS011;3628;48.654;8.932;2022-08-19T06:12:19;16.97;;;15.17;;
7173;SDS011;3628;48.654;8.932;2022-08-19T06:14:51;18.17;;;14.32;;
7173;SDS011;3628;48.654;8.932;2022-08-19T06:17:19;18.73;;;14.27;;
7173;SDS011;3628;48.654;8.932;2022-08-19T06:19:46;16.63;;;14.57;;
7173;SDS011;3628;48.654;8.932;2022-08-19T06:22:11;18.00;;;13.60;;
7173;SDS011;3628;48.654;8.932;2022-08-19T06:24:38;17.17;;;14.95;;
7173;SDS011;3628;48.654;8.932;2022-08-19T06:27:03;16.73;;;13.82;;
7173;SDS011;3628;48.654;8.932;2022-08-19T06:29:30;15.27;;;13.68;;
7173;SDS011;3628;48.654;8.932;2022-08-19T06:31:57;16.40;;;13.85;;
7173;SDS011;3628;48.654;8.932;2022-08-19T06:34:24;16.00;;;14.30;;
7173;SDS011;3628;48.654;8.932;2022-08-19T06:36:52;17.27;;;14.45;;
7173;SDS011;3628;48.654;8.932;2022-08-19T06:39:21;17.65;;;15.23;;
7173;SDS011;3628;48.654;8.932;2022-08-19T06:41:54;17.30;;;14.50;;
7173;SDS011;3628;48.654;8.932;2022-08-19T06:44:22;18.27;;;15.10;;
7173;SDS011;3628;48.654;8.932;2022-08-19T06:46:51;15.77;;;13.82;;
7173;SDS011;3628;48.654;8.932;2022-08-19T06:49:17;16.98;;;13.98;;
7173;SDS011;3628;48.654;8.932;2022-08-19T06:51:45;17.05;;;13.60;;
7173;SDS011;3628;48.654;8.932;2022-08-19T06:54:12;15.57;;;13.95;;
7173;SDS011;3628;48.654;8.932;2022-08-19T06:56:39;17.40;;;13.88;;
7173;SDS011;3628;48.654;8.932;2022-08-19T06:59:09;18.13;;;13.98;;
7173;SDS011;3628;48.654;8.932;2022-08-19T07:01:36;15.50;;;13.35;;
7173;SDS011;3628;48.654;8.932;2022-08-19T07:04:05;15.75;;;13.15;;
7173;SDS011;3628;48.654;8.932;2022-08-19T07:06:32;16.70;;;13.50;;
7173;SDS011;3628;48.654;8.932;2022-08-19T07:08:58;16.50;;;13.35;;
7173;SDS011;3628;48.654;8.932;2022-08-19T07:11:24;14.93;;;13.43;;
7173;SDS011;3628;48.654;8.932;2022-08-19T07:13:50;14.68;;;12.85;;
7173;SDS011;3628;48.654;8.932;2022-08-19T07:16:16;16.52;;;13.30;;
7173;SDS011;3628;48.654;8.932;2022-08-19T07:18:44;14.10;;;11.30;;
7173;SDS011;3628;48.654;8.932;2022-08-19T07:21:16;18.50;;;12.38;;
7173;SDS011;3628;48.654;8.932;2022-08-19T07:23:47;15.13;;;11.57;;
7173;SDS011;3628;48.654;8.932;2022-08-19T07:26:15;13.73;;;12.20;;
7173;SDS011;3628;48.654;8.932;2022-08-19T07:28:47;12.93;;;11.57;;
7173;SDS011;3628;48.654;8.932;2022-08-19T07:31:14;12.88;;;11.63;;
7173;SDS011;3628;48.654;8.932;2022-08-19T07:33:45;12.65;;;11.35;;
7173;SDS011;3628;48.654;8.932;2022-08-19T07:36:13;14.20;;;11.90;;
7173;SDS011;3628;48.654;8.932;2022-08-19T07:38:41;12.55;;;10.63;;
7173;SDS011;3628;48.654;8.932;2022-08-19T07:41:09;14.75;;;10.95;;
7173;SDS011;3628;48.654;8.932;2022-08-19T07:43:37;15.82;;;10.93;;
7173;SDS011;3628;48.654;8.932;2022-08-19T07:46:03;13.25;;;11.40;;
7173;SDS011;3628;48.654;8.932;2022-08-19T07:48:29;13.48;;;11.23;;
7173;SDS011;3628;48.654;8.932;2022-08-19T07:50:56;14.38;;;11.23;;
7173;SDS011;3628;48.654;8.932;2022-08-19T07:53:24;15.18;;;11.80;;
7173;SDS011;3628;48.654;8.932;2022-08-19T07:55:50;12.35;;;11.05;;
7173;SDS011;3628;48.654;8.932;2022-08-19T07:58:17;12.77;;;10.50;;
7173;SDS011;3628;48.654;8.932;2022-08-19T08:00:46;15.27;;;10.95;;
7173;SDS011;3628;48.654;8.932;2022-08-19T08:03:13;13.30;;;10.15;;
7173;SDS011;3628;48.654;8.932;2022-08-19T08:05:40;11.57;;;10.30;;
7173;SDS011;3628;48.654;8.932;2022-08-19T08:08:25;12.10;;;10.25;;
7173;SDS011;3628;48.654;8.932;2022-08-19T08:11:10;11.65;;;10.50;;
7173;SDS011;3628;48.654;8.932;2022-08-19T08:13:37;14.50;;;11.10;;
7173;SDS011;3628;48.654;8.932;2022-08-19T08:16:03;12.18;;;10.27;;
7173;SDS011;3628;48.654;8.932;2022-08-19T08:18:28;13.20;;;10.93;;
7173;SDS011;3628;48.654;8.932;2022-08-19T08:20:56;12.02;;;10.73;;
7173;SDS011;3628;48.654;8.932;2022-08-19T08:23:23;12.10;;;10.77;;
7173;SDS011;3628;48.654;8.932;2022-08-19T08:25:54;11.57;;;10.25;;
7173;SDS011;3628;48.654;8.932;2022-08-19T08:28:22;11.80;;;10.57;;
7173;SDS011;3628;48.654;8.932;2022-08-19T08:30:48;14.63;;;10.65;;
7173;SDS011;3628;48.654;8.932;2022-08-19T08:33:19;14.90;;;11.00;;
7173;SDS011;3628;48.654;8.932;2022-08-19T08:35:46;11.15;;;9.98;;
7173;SDS011;3628;48.654;8.932;2022-08-19T08:38:12;11.68;;;10.48;;
7173;SDS011;3628;48.654;8.932;2022-08-19T08:46:04;12.98;;;10.88;;
7173;SDS011;3628;48.654;8.932;2022-08-19T08:48:51;14.75;;;10.02;;
7173;SDS011;3628;48.654;8.932;2022-08-19T08:51:31;11.73;;;10.52;;
7173;SDS011;3628;48.654;8.932;2022-08-19T08:54:00;22.63;;;11.43;;
7173;SDS011;3628;48.654;8.932;2022-08-19T08:56:29;12.90;;;10.77;;
7173;SDS011;3628;48.654;8.932;2022-08-19T08:59:02;11.63;;;10.43;;
7173;SDS011;3628;48.654;8.932;2022-08-19T09:01:33;12.00;;;10.05;;
7173;SDS011;3628;48.654;8.932;2022-08-19T09:03:59;11.82;;;10.63;;
7173;SDS011;3628;48.654;8.932;2022-08-19T09:06:42;12.55;;;10.15;;
7173;SDS011;3628;48.654;8.932;2022-08-19T09:09:20;13.35;;;11.07;;
7173;SDS011;3628;48.654;8.932;2022-08-19T09:12:06;12.05;;;10.82;;
7173;SDS011;3628;48.654;8.932;2022-08-19T09:17:26;14.75;;;11.15;;
7173;SDS011;3628;48.654;8.932;2022-08-19T09:22:37;11.35;;;10.27;;
7173;SDS011;3628;48.654;8.932;2022-08-19T09:25:04;11.02;;;9.93;;
7173;SDS011;3628;48.654;8.932;2022-08-19T09:27:32;11.13;;;9.93;;
7173;SDS011;3628;48.654;8.932;2022-08-19T09:29:57;11.32;;;10.18;;
7173;SDS011;3628;48.654;8.932;2022-08-19T09:32:23;11.20;;;10.00;;
7173;SDS011;3628;48.654;8.932;2022-08-19T09:34:50;11.43;;;10.23;;
7173;SDS011;3628;48.654;8.932;2022-08-19T09:37:20;15.57;;;10.80;;
7173;SDS011;3628;48.654;8.932;2022-08-19T09:39:46;14.18;;;10.90;;
7173;SDS011;3628;48.654;8.932;2022-08-19T09:42:12;13.98;;;11.02;;
7173;SDS011;3628;48.654;8.932;2022-08-19T09:44:39;11.20;;;10.10;;
7173;SDS011;3628;48.654;8.932;2022-08-19T09:47:06;13.10;;;10.95;;
7173;SDS011;3628;48.654;8.932;2022-08-19T09:49:33;12.45;;;11.05;;
7173;SDS011;3628;48.654;8.932;2022-08-19T09:51:58;12.82;;;10.70;;
7173;SDS011;3628;48.654;8.932;2022-08-19T09:54:25;11.75;;;10.48;;
7173;SDS011;3628;48.654;8.932;2022-08-19T09:56:51;14.13;;;10.80;;
7173;SDS011;3628;48.654;8.932;2022-08-19T09:59:18;12.27;;;9.88;;
7173;SDS011;3628;48.654;8.932;2022-08-19T10:01:43;10.70;;;9.68;;
7173;SDS011;3628;48.654;8.932;2022-08-19T10:04:12;11.07;;;9.95;;
7173;SDS011;3628;48.654;8.932;2022-08-19T10:06:39;15.45;;;10.50;;
7173;SDS011;3628;48.654;8.932;2022-08-19T10:09:08;10.75;;;9.65;;
7173;SDS011;3628;48.654;8.932;2022-08-19T10:11:36;15.32;;;10.70;;
7173;SDS011;3628;48.654;8.932;2022-08-19T10:14:10;10.98;;;9.75;;
7173;SDS011;3628;48.654;8.932;2022-08-19T10:16:36;10.27;;;9.32;;
7173;SDS011;3628;48.654;8.932;2022-08-19T10:19:02;10.38;;;9.32;;
7173;SDS011;3628;48.654;8.932;2022-08-19T10:21:30;9.07;;;8.18;;
7173;SDS011;3628;48.654;8.932;2022-08-19T10:23:59;12.38;;;9.20;;
7173;SDS011;3628;48.654;8.932;2022-08-19T10:26:29;10.40;;;9.13;;
7173;SDS011;3628;48.654;8.932;2022-08-19T10:28:59;11.90;;;9.63;;
7173;SDS011;3628;48.654;8.932;2022-08-19T10:31:26;13.98;;;9.38;;
7173;SDS011;3628;48.654;8.932;2022-08-19T10:33:59;9.98;;;8.93;;
7173;SDS011;3628;48.654;8.932;2022-08-19T10:36:29;9.52;;;8.50;;
7173;SDS011;3628;48.654;8.932;2022-08-19T10:38:57;10.23;;;9.23;;
7173;SDS011;3628;48.654;8.932;2022-08-19T10:41:28;8.77;;;7.90;;
7173;SDS011;3628;48.654;8.932;2022-08-19T10:43:57;11.70;;;8.07;;
7173;SDS011;3628;48.654;8.932;2022-08-19T10:46:25;9.52;;;7.80;;
7173;SDS011;3628;48.654;8.932;2022-08-19T10:48:52;8.63;;;6.97;;
7173;SDS011;3628;48.654;8.932;2022-08-19T10:51:19;8.93;;;7.28;;
7173;SDS011;3628;48.654;8.932;2022-08-19T10:54:03;11.32;;;8.05;;
7173;SDS011;3628;48.654;8.932;2022-08-19T10:56:29;7.85;;;7.05;;
7173;SDS011;3628;48.654;8.932;2022-08-19T10:59:15;8.32;;;7.25;;
7173;SDS011;3628;48.654;8.932;2022-08-19T11:01:42;9.02;;;7.07;;
7173;SDS011;3628;48.654;8.932;2022-08-19T11:04:12;8.27;;;6.80;;
7173;SDS011;3628;48.654;8.932;2022-08-19T11:06:39;9.15;;;6.78;;
7173;SDS011;3628;48.654;8.932;2022-08-19T11:09:07;8.25;;;7.07;;
7173;SDS011;3628;48.654;8.932;2022-08-19T11:11:33;9.02;;;7.03;;
7173;SDS011;3628;48.654;8.932;2022-08-19T11:14:12;7.78;;;6.50;;
7173;SDS011;3628;48.654;8.932;2022-08-19T11:16:40;9.85;;;6.75;;
7173;SDS011;3628;48.654;8.932;2022-08-19T11:19:08;7.70;;;6.00;;
7173;SDS011;3628;48.654;8.932;2022-08-19T11:21:39;7.75;;;6.03;;
7173;SDS011;3628;48.654;8.932;2022-08-19T11:24:08;8.23;;;5.97;;
7173;SDS011;3628;48.654;8.932;2022-08-19T11:26:35;7.15;;;5.90;;
7173;SDS011;3628;48.654;8.932;2022-08-19T11:29:02;8.57;;;6.40;;
7173;SDS011;3628;48.654;8.932;2022-08-19T11:31:30;9.50;;;6.05;;
7173;SDS011;3628;48.654;8.932;2022-08-19T11:33:57;6.80;;;6.10;;
7173;SDS011;3628;48.654;8.932;2022-08-19T11:36:25;6.53;;;5.20;;
7173;SDS011;3628;48.654;8.932;2022-08-19T11:38:51;9.57;;;5.65;;
7173;SDS011;3628;48.654;8.932;2022-08-19T11:41:17;6.82;;;5.70;;
7173;SDS011;3628;48.654;8.932;2022-08-19T11:43:45;8.85;;;5.25;;
7173;SDS011;3628;48.654;8.932;2022-08-19T11:46:12;8.20;;;6.03;;
7173;SDS011;3628;48.654;8.932;2022-08-19T11:48:39;6.20;;;5.25;;
7173;SDS011;3628;48.654;8.932;2022-08-19T11:51:06;7.05;;;5.72;;
7173;SDS011;3628;48.654;8.932;2022-08-19T11:53:34;9.30;;;5.38;;
7173;SDS011;3628;48.654;8.932;2022-08-19T11:56:00;7.85;;;5.28;;
7173;SDS011;3628;48.654;8.932;2022-08-19T11:58:27;7.68;;;4.68;;
7173;SDS011;3628;48.654;8.932;2022-08-19T12:00:54;8.85;;;5.35;;
7173;SDS011;3628;48.654;8.932;2022-08-19T12:03:20;10.25;;;5.72;;
7173;SDS011;3628;48.654;8.932;2022-08-19T12:05:45;8.15;;;5.07;;
7173;SDS011;3628;48.654;8.932;2022-08-19T12:08:11;7.05;;;5.60;;
7173;SDS011;3628;48.654;8.932;2022-08-19T12:10:38;7.45;;;4.45;;
7173;SDS011;3628;48.654;8.932;2022-08-19T12:13:04;6.20;;;5.45;;
7173;SDS011;3628;48.654;8.932;2022-08-19T12:15:34;5.00;;;4.60;;
7173;SDS011;3628;48.654;8.932;2022-08-19T12:18:05;7.85;;;4.93;;
7173;SDS011;3628;48.654;8.932;2022-08-19T12:20:34;5.10;;;4.60;;
7173;SDS011;3628;48.654;8.932;2022-08-19T12:23:01;7.05;;;4.63;;
7173;SDS011;3628;48.654;8.932;2022-08-19T12:25:27;6.25;;;4.18;;
7173;SDS011;3628;48.654;8.932;2022-08-19T12:27:53;4.10;;;3.70;;
7173;SDS011;3628;48.654;8.932;2022-08-19T12:30:20;6.20;;;3.80;;
7173;SDS011;3628;48.654;8.932;2022-08-19T12:32:45;7.43;;;4.00;;
7173;SDS011;3628;48.654;8.932;2022-08-19T12:35:11;4.50;;;3.55;;
7173;SDS011;3628;48.654;8.932;2022-08-19T12:37:37;4.22;;;3.83;;
7173;SDS011;3628;48.654;8.932;2022-08-19T12:40:04;4.15;;;3.22;;
7173;SDS011;3628;48.654;8.932;2022-08-19T12:42:30;3.92;;;3.25;;
7173;SDS011;3628;48.654;8.932;2022-08-19T12:44:55;4.80;;;3.10;;
7173;SDS011;3628;48.654;8.932;2022-08-19T12:47:21;4.28;;;3.13;;
7173;SDS011;3628;48.654;8.932;2022-08-19T12:49:47;5.10;;;3.38;;
7173;SDS011;3628;48.654;8.932;2022-08-19T12:52:14;4.15;;;3.40;;
7173;SDS011;3628;48.654;8.932;2022-08-19T12:54:41;4.35;;;3.45;;
7173;SDS011;3628;48.654;8.932;2022-08-19T12:57:07;6.68;;;3.30;;
7173;SDS011;3628;48.654;8.932;2022-08-19T12:59:34;6.20;;;3.40;;
7173;SDS011;3628;48.654;8.932;2022-08-19T13:02:01;5.07;;;3.30;;
7173;SDS011;3628;48.654;8.932;2022-08-19T13:04:29;6.70;;;3.17;;
7173;SDS011;3628;48.654;8.932;2022-08-19T13:06:55;4.22;;;2.80;;
7173;SDS011;3628;48.654;8.932;2022-08-19T13:09:20;4.90;;;2.97;;
7173;SDS011;3628;48.654;8.932;2022-08-19T13:11:46;6.95;;;3.13;;
7173;SDS011;3628;48.654;8.932;2022-08-19T13:14:11;5.82;;;2.88;;
7173;SDS011;3628;48.654;8.932;2022-08-19T13:16:37;4.45;;;3.22;;
7173;SDS011;3628;48.654;8.932;2022-08-19T13:19:03;3.63;;;3.15;;
7173;SDS011;3628;48.654;8.932;2022-08-19T13:21:30;4.55;;;3.60;;
7173;SDS011;3628;48.654;8.932;2022-08-19T13:23:55;5.43;;;3.05;;
7173;SDS011;3628;48.654;8.932;2022-08-19T13:26:22;4.53;;;3.17;;
7173;SDS011;3628;48.654;8.932;2022-08-19T13:28:48;4.38;;;3.97;;
7173;SDS011;3628;48.654;8.932;2022-08-19T13:31:33;4.18;;;3.75;;
7173;SDS011;3628;48.654;8.932;2022-08-19T13:34:25;6.22;;;3.83;;
7173;SDS011;3628;48.654;8.932;2022-08-19T13:36:59;4.20;;;3.80;;
7173;SDS011;3628;48.654;8.932;2022-08-19T13:39:28;3.85;;;3.55;;
7173;SDS011;3628;48.654;8.932;2022-08-19T13:41:54;4.25;;;3.88;;
7173;SDS011;3628;48.654;8.932;2022-08-19T13:44:20;4.85;;;4.13;;
7173;SDS011;3628;48.654;8.932;2022-08-19T13:46:47;5.38;;;4.53;;
7173;SDS011;3628;48.654;8.932;2022-08-19T13:49:13;5.38;;;4.25;;
7173;SDS011;3628;48.654;8.932;2022-08-19T13:51:40;5.05;;;3.92;;
7173;SDS011;3628;48.654;8.932;2022-08-19T13:54:07;4.93;;;3.97;;
7173;SDS011;3628;48.654;8.932;2022-08-19T13:56:34;5.18;;;4.13;;
7173;SDS011;3628;48.654;8.932;2022-08-19T13:59:00;4.43;;;4.03;;
7173;SDS011;3628;48.654;8.932;2022-08-19T14:01:25;5.35;;;4.32;;
7173;SDS011;3628;48.654;8.932;2022-08-19T14:03:51;4.75;;;4.35;;
7173;SDS011;3628;48.654;8.932;2022-08-19T14:06:17;4.07;;;3.78;;
7173;SDS011;3628;48.654;8.932;2022-08-19T14:08:44;4.55;;;4.15;;
7173;SDS011;3628;48.654;8.932;2022-08-19T14:11:10;5.93;;;4.28;;
7173;SDS011;3628;48.654;8.932;2022-08-19T14:13:36;4.10;;;3.80;;
7173;SDS011;3628;48.654;8.932;2022-08-19T14:16:06;5.38;;;4.57;;
7173;SDS011;3628;48.654;8.932;2022-08-19T14:18:33;5.43;;;3.78;;
7173;SDS011;3628;48.654;8.932;2022-08-19T14:20:59;4.40;;;4.10;;
7173;SDS011;3628;48.654;8.932;2022-08-19T14:23:24;4.88;;;4.40;;
7173;SDS011;3628;48.654;8.932;2022-08-19T14:25:50;4.40;;;4.00;;
7173;SDS011;3628;48.654;8.932;2022-08-19T14:28:16;4.32;;;3.92;;
7173;SDS011;3628;48.654;8.932;2022-08-19T14:30:41;5.03;;;4.22;;
7173;SDS011;3628;48.654;8.932;2022-08-19T14:33:09;4.40;;;4.07;;
7173;SDS011;3628;48.654;8.932;2022-08-19T14:35:35;4.78;;;4.28;;
7173;SDS011;3628;48.654;8.932;2022-08-19T14:38:05;6.70;;;4.25;;
7173;SDS011;3628;48.654;8.932;2022-08-19T14:40:31;4.03;;;3.72;;
7173;SDS011;3628;48.654;8.932;2022-08-19T14:43:01;4.72;;;3.70;;
7173;SDS011;3628;48.654;8.932;2022-08-19T14:45:30;3.95;;;3.63;;
7173;SDS011;3628;48.654;8.932;2022-08-19T14:47:56;4.00;;;3.60;;
7173;SDS011;3628;48.654;8.932;2022-08-19T14:50:24;4.13;;;3.75;;
7173;SDS011;3628;48.654;8.932;2022-08-19T14:52:49;5.28;;;3.67;;
7173;SDS011;3628;48.654;8.932;2022-08-19T14:55:21;4.53;;;3.80;;
7173;SDS011;3628;48.654;8.932;2022-08-19T14:57:47;4.88;;;4.15;;
7173;SDS011;3628;48.654;8.932;2022-08-19T15:00:13;3.78;;;3.42;;
7173;SDS011;3628;48.654;8.932;2022-08-19T15:02:42;4.05;;;3.72;;
7173;SDS011;3628;48.654;8.932;2022-08-19T15:05:11;4.07;;;3.60;;
7173;SDS011;3628;48.654;8.932;2022-08-19T15:07:38;3.97;;;3.58;;
7173;SDS011;3628;48.654;8.932;2022-08-19T15:10:04;4.20;;;3.90;;
7173;SDS011;3628;48.654;8.932;2022-08-19T15:12:32;4.15;;;3.75;;
7173;SDS011;3628;48.654;8.932;2022-08-19T15:14:59;7.13;;;3.80;;
7173;SDS011;3628;48.654;8.932;2022-08-19T15:17:25;4.47;;;4.07;;